Time;durP1;ratioP1;P1;durP2;ratioP2;P2;SDS_P1;SDS_P2;PMS_P1;PMS_P2;Temp;Humidity;BMP_temperature;BMP_pressure;BME280_temperature;BME280_humidity;BME280_pressure;Samples;Min_cycle;Max_cycle;Signal;HPM_P1;HPM_P2
2022/07/21 00:01:10;;;;;;;;;;;;;;;;;;4957220;28;20020;-72
2022/07/21 00:03:38;;;;;;;;;;;;;;;;;;4961142;28;19929;-71
2022/07/21 00:06:05;;;;;;;;;;;;;;;;;;4955837;28;19930;-73
2022/07/21 00:08:33;;;;;;;;;;;;;;;;;;4952734;28;19938;-72
2022/07/21 00:11:00;;;;;;;;;;;;;;;;;;4954425;28;20475;-72
2022/07/21 00:13:27;;;;;;;;;;;;;;;;;;4953459;28;19934;-74
2022/07/21 00:15:54;;;;;;;;;;;;;;;;;;4950039;28;19972;-72
2022/07/21 00:18:22;;;;;;;;;;;;;;;;;;4953185;28;19977;-73
2022/07/21 00:20:49;;;;;;;;;;;;;;;;;;4926509;28;19933;-71
2022/07/21 00:23:16;;;;;;;;;;;;;;;;;;4949210;28;20041;-72
2022/07/21 00:25:43;;;;;;;;;;;;;;;;;;4954041;28;19934;-72
2022/07/21 00:28:11;;;;;;;;;;;;;;;;;;4950010;28;19969;-72
2022/07/21 00:30:38;;;;;;;;;;;;;;;;;;4953390;28;20033;-71
2022/07/21 00:33:05;;;;;;;;;;;;;;;;;;4975507;28;20343;-72
2022/07/21 00:35:32;;;;;;;;;;;;;;;;;;4967279;28;20409;-71
2022/07/21 00:38:00;;;;;;;;;;;;;;;;;;4961142;28;20017;-72
2022/07/21 00:40:28;;;;;;;;;;;;;;;;;;4948141;28;20385;-72
2022/07/21 00:42:55;;;;;;;;;;;;;;;;;;4960040;28;20044;-70
2022/07/21 00:45:22;;;;;;;;;;;;;;;;;;4952661;28;19934;-72
2022/07/21 00:47:50;;;;;;;;;;;;;;;;;;4958592;28;19969;-72
2022/07/21 00:50:17;;;;;;;;;;;;;;;;;;4954380;28;20444;-71
2022/07/21 00:52:44;;;;;;;;;;;;;;;;;;4974367;28;19929;-72
2022/07/21 00:55:12;;;;;;;;;;;;;;;;;;4973952;28;19930;-73
2022/07/21 00:57:39;;;;;;;;;;;;;;;;;;4944471;28;20037;-72
2022/07/21 01:00:06;;;;;;;;;;;;;;;;;;4956801;28;19934;-73
2022/07/21 01:02:36;;;;;;;;;;;;;;;;;;4952096;28;20551;-71
2022/07/21 01:05:03;;;;;;;;;;;;;;;;;;4934641;28;19945;-73
2022/07/21 01:07:31;;;;;;;;;;;;;;;;;;4962772;28;20049;-71
2022/07/21 01:09:58;;;;;;;;;;;;;;;;;;4940223;28;20379;-71
2022/07/21 01:12:25;;;;;;;;;;;;;;;;;;4956990;28;20286;-72
2022/07/21 01:14:53;;;;;;;;;;;;;;;;;;4969942;28;19934;-72
2022/07/21 01:17:20;;;;;;;;;;;;;;;;;;4961398;28;19927;-72
2022/07/21 01:19:47;;;;;;;;;;;;;;;;;;4956082;28;19940;-72
2022/07/21 01:22:14;;;;;;;;;;;;;;;;;;4961907;28;19937;-72
2022/07/21 01:24:42;;;;;;;;;;;;;;;;;;4952993;28;19926;-75
2022/07/21 01:27:09;;;;;;;;;;;;;;;;;;4953813;28;20483;-72
2022/07/21 01:29:36;;;;;;;;;;;;;;;;;;4949414;28;20021;-72
2022/07/21 01:32:04;;;;;;;;;;;;;;;;;;4960635;28;19941;-73
2022/07/21 01:34:31;;;;;;;;;;;;;;;;;;4951180;28;19930;-73
2022/07/21 01:37:01;;;;;;;;;;;;;;;;;;4968891;28;20687;-73
2022/07/21 01:42:14;;;;;;;;;;;;;;;;;;4968055;28;19926;-72
2022/07/21 01:44:42;;;;;;;;;;;;;;;;;;4955999;28;19930;-72
2022/07/21 01:47:09;;;;;;;;;;;;;;;;;;4940523;28;20005;-73
2022/07/21 01:49:36;;;;;;;;;;;;;;;;;;4949898;28;20317;-72
2022/07/21 01:52:03;;;;;;;;;;;;;;;;;;4937960;28;20341;-72
2022/07/21 01:54:31;;;;;;;;;;;;;;;;;;4964728;28;19941;-72
2022/07/21 01:56:58;;;;;;;;;;;;;;;;;;4966049;28;19945;-71
2022/07/21 01:59:25;;;;;;;;;;;;;;;;;;4962659;28;19933;-73
2022/07/21 02:01:53;;;;;;;;;;;;;;;;;;4963331;28;19953;-73
2022/07/21 02:04:20;;;;;;;;;;;;;;;;;;4967791;28;19933;-73
2022/07/21 02:06:47;;;;;;;;;;;;;;;;;;4949401;28;20590;-73
2022/07/21 02:09:14;;;;;;;;;;;;;;;;;;4949268;28;19931;-72
2022/07/21 02:11:42;;;;;;;;;;;;;;;;;;4938735;28;19930;-72
2022/07/21 02:14:09;;;;;;;;;;;;;;;;;;4957754;28;19930;-73
2022/07/21 02:16:36;;;;;;;;;;;;;;;;;;4963173;28;19980;-73
2022/07/21 02:19:04;;;;;;;;;;;;;;;;;;4964219;28;19930;-73
2022/07/21 02:21:31;;;;;;;;;;;;;;;;;;4967976;28;19936;-71
2022/07/21 02:23:58;;;;;;;;;;;;;;;;;;4961735;28;19934;-73
2022/07/21 02:26:25;;;;;;;;;;;;;;;;;;4961531;28;20029;-71
2022/07/21 02:28:53;;;;;;;;;;;;;;;;;;4964350;28;19932;-72
2022/07/21 02:31:20;;;;;;;;;;;;;;;;;;4956979;28;20393;-72
2022/07/21 02:33:47;;;;;;;;;;;;;;;;;;4966855;28;19930;-72
2022/07/21 02:36:15;;;;;;;;;;;;;;;;;;4953097;28;19932;-72
2022/07/21 02:38:42;;;;;;;;;;;;;;;;;;4948842;28;19931;-74
2022/07/21 02:41:09;;;;;;;;;;;;;;;;;;4954982;28;19926;-74
2022/07/21 02:43:36;;;;;;;;;;;;;;;;;;4947811;28;20376;-73
2022/07/21 02:46:04;;;;;;;;;;;;;;;;;;4955268;28;20010;-73
2022/07/21 02:48:31;;;;;;;;;;;;;;;;;;4953887;28;20025;-73
2022/07/21 02:50:58;;;;;;;;;;;;;;;;;;4962200;28;20025;-72
2022/07/21 02:53:27;;;;;;;;;;;;;;;;;;4958015;28;19926;-73
2022/07/21 02:55:54;;;;;;;;;;;;;;;;;;4948086;28;19977;-73
2022/07/21 02:58:21;;;;;;;;;;;;;;;;;;4962803;28;19973;-73
2022/07/21 03:00:49;;;;;;;;;;;;;;;;;;4935967;28;20165;-72
2022/07/21 03:03:16;;;;;;;;;;;;;;;;;;4967598;28;20017;-73
2022/07/21 03:05:43;;;;;;;;;;;;;;;;;;4967200;28;20309;-72
2022/07/21 03:08:10;;;;;;;;;;;;;;;;;;4964686;28;19926;-72
2022/07/21 03:10:38;;;;;;;;;;;;;;;;;;4968936;28;20025;-72
2022/07/21 03:13:05;;;;;;;;;;;;;;;;;;4965069;28;19930;-72
2022/07/21 03:15:32;;;;;;;;;;;;;;;;;;4978503;28;19976;-73
2022/07/21 03:18:00;;;;;;;;;;;;;;;;;;4986976;23;19936;-85
2022/07/21 03:20:27;;;;;;;;;;;;;;;;;;4954869;28;20421;-85
2022/07/21 03:22:54;;;;;;;;;;;;;;;;;;4959506;28;19937;-85
2022/07/21 03:25:21;;;;;;;;;;;;;;;;;;4919318;28;20060;-86
2022/07/21 03:27:49;;;;;;;;;;;;;;;;;;4944334;28;19934;-85
2022/07/21 03:30:16;;;;;;;;;;;;;;;;;;4932053;29;19953;-85
2022/07/21 03:32:43;;;;;;;;;;;;;;;;;;4950361;28;19927;-86
2022/07/21 03:35:10;;;;;;;;;;;;;;;;;;4934478;29;19930;-86
2022/07/21 03:37:37;;;;;;;;;;;;;;;;;;4951944;28;19996;-86
2022/07/21 03:40:05;;;;;;;;;;;;;;;;;;4936046;28;20283;-85
2022/07/21 03:42:38;;;;;;;;;;;;;;;;;;4933085;28;19934;-86
2022/07/21 03:45:05;;;;;;;;;;;;;;;;;;4936281;29;20441;-85
2022/07/21 03:47:36;;;;;;;;;;;;;;;;;;4937144;28;19934;-85
2022/07/21 03:50:03;;;;;;;;;;;;;;;;;;4960949;28;19958;-85
2022/07/21 03:52:54;;;;;;;;;;;;;;;;;;4954166;28;20052;-86
2022/07/21 03:55:22;;;;;;;;;;;;;;;;;;4949740;28;19926;-86
2022/07/21 03:57:49;;;;;;;;;;;;;;;;;;4934941;29;19934;-86
2022/07/21 04:00:16;;;;;;;;;;;;;;;;;;4951111;28;20394;-86
2022/07/21 04:02:44;;;;;;;;;;;;;;;;;;4947695;28;19964;-86
2022/07/21 04:05:11;;;;;;;;;;;;;;;;;;4949269;28;19937;-85
2022/07/21 04:07:38;;;;;;;;;;;;;;;;;;4955511;28;19926;-85
2022/07/21 04:10:06;;;;;;;;;;;;;;;;;;4944848;28;19942;-86
2022/07/21 04:12:33;;;;;;;;;;;;;;;;;;4933619;29;20002;-84
2022/07/21 04:15:00;;;;;;;;;;;;;;;;;;4934240;29;19930;-83
2022/07/21 04:17:27;;;;;;;;;;;;;;;;;;4933569;29;19934;-84
2022/07/21 04:19:54;;;;;;;;;;;;;;;;;;4949314;28;19930;-84
2022/07/21 04:22:24;;;;;;;;;;;;;;;;;;4948627;28;19954;-83
2022/07/21 04:24:51;;;;;;;;;;;;;;;;;;4944608;28;19926;-84
2022/07/21 04:27:18;;;;;;;;;;;;;;;;;;4956907;28;19929;-84
2022/07/21 04:29:45;;;;;;;;;;;;;;;;;;4966068;28;19938;-84
2022/07/21 04:32:13;;;;;;;;;;;;;;;;;;4941037;29;19935;-83
2022/07/21 04:34:40;;;;;;;;;;;;;;;;;;4954690;28;20604;-83
2022/07/21 04:37:07;;;;;;;;;;;;;;;;;;4932415;28;20021;-83
2022/07/21 04:39:34;;;;;;;;;;;;;;;;;;4945677;28;19930;-82
2022/07/21 04:42:02;;;;;;;;;;;;;;;;;;4946983;28;20013;-83
2022/07/21 04:44:29;;;;;;;;;;;;;;;;;;4955639;28;19953;-82
2022/07/21 04:46:56;;;;;;;;;;;;;;;;;;4959764;28;19937;-83
2022/07/21 04:49:23;;;;;;;;;;;;;;;;;;4930507;28;19949;-82
2022/07/21 04:51:51;;;;;;;;;;;;;;;;;;4934561;29;20448;-83
2022/07/21 04:54:18;;;;;;;;;;;;;;;;;;4929806;28;19935;-82
2022/07/21 04:56:45;;;;;;;;;;;;;;;;;;4938894;28;19934;-83
2022/07/21 04:59:12;;;;;;;;;;;;;;;;;;4927030;28;19945;-83
2022/07/21 05:01:40;;;;;;;;;;;;;;;;;;4937720;28;19931;-85
2022/07/21 05:04:07;;;;;;;;;;;;;;;;;;4935336;28;20627;-82
2022/07/21 05:06:37;;;;;;;;;;;;;;;;;;4915043;29;20333;-84
2022/07/21 05:09:05;;;;;;;;;;;;;;;;;;4931027;28;20310;-82
2022/07/21 05:11:32;;;;;;;;;;;;;;;;;;4938144;28;19937;-83
2022/07/21 05:13:59;;;;;;;;;;;;;;;;;;4953507;28;19969;-83
2022/07/21 05:16:27;;;;;;;;;;;;;;;;;;4957558;28;19936;-83
2022/07/21 05:18:54;;;;;;;;;;;;;;;;;;4952936;29;20500;-84
2022/07/21 05:21:21;;;;;;;;;;;;;;;;;;4926398;29;19981;-84
2022/07/21 05:23:49;;;;;;;;;;;;;;;;;;4955329;28;19931;-83
2022/07/21 05:26:16;;;;;;;;;;;;;;;;;;4956758;28;19926;-84
2022/07/21 05:28:43;;;;;;;;;;;;;;;;;;4928030;28;19930;-82
2022/07/21 05:31:10;;;;;;;;;;;;;;;;;;4948234;28;19926;-83
2022/07/21 05:33:38;;;;;;;;;;;;;;;;;;4937667;28;19927;-82
2022/07/21 05:36:05;;;;;;;;;;;;;;;;;;4936327;29;19930;-83
2022/07/21 05:38:32;;;;;;;;;;;;;;;;;;4940513;29;19936;-82
2022/07/21 05:40:59;;;;;;;;;;;;;;;;;;4936429;29;19954;-82
2022/07/21 05:43:27;;;;;;;;;;;;;;;;;;4954944;28;19958;-82
2022/07/21 05:45:54;;;;;;;;;;;;;;;;;;4947729;28;19961;-82
2022/07/21 05:48:25;;;;;;;;;;;;;;;;;;4956553;28;19926;-83
2022/07/21 05:50:52;;;;;;;;;;;;;;;;;;4939817;28;20398;-82
2022/07/21 05:53:20;;;;;;;;;;;;;;;;;;4960339;28;19938;-82
2022/07/21 05:55:47;;;;;;;;;;;;;;;;;;4952060;28;19957;-83
2022/07/21 05:58:15;;;;;;;;;;;;;;;;;;4940678;29;19934;-84
2022/07/21 06:00:42;;;;;;;;;;;;;;;;;;4921858;28;19937;-85
2022/07/21 06:03:10;;;;;;;;;;;;;;;;;;4950993;28;19985;-84
2022/07/21 06:05:39;;;;;;;;;;;;;;;;;;4962970;28;20306;-84
2022/07/21 06:08:06;;;;;;;;;;;;;;;;;;4957813;28;19933;-84
2022/07/21 06:10:33;;;;;;;;;;;;;;;;;;4937961;28;19937;-83
2022/07/21 06:13:01;;;;;;;;;;;;;;;;;;4943145;29;19989;-83
2022/07/21 06:15:29;;;;;;;;;;;;;;;;;;4937702;29;19930;-84
2022/07/21 06:17:56;;;;;;;;;;;;;;;;;;4942534;28;19926;-82
2022/07/21 06:20:23;;;;;;;;;;;;;;;;;;4936668;28;19935;-82
2022/07/21 06:22:50;;;;;;;;;;;;;;;;;;4964873;23;19926;-69
2022/07/21 06:25:18;;;;;;;;;;;;;;;;;;4946816;28;19934;-70
2022/07/21 06:27:45;;;;;;;;;;;;;;;;;;4949019;29;20425;-72
2022/07/21 06:30:12;;;;;;;;;;;;;;;;;;4929158;28;19927;-70
2022/07/21 06:32:40;;;;;;;;;;;;;;;;;;4926496;29;20038;-71
2022/07/21 06:35:07;;;;;;;;;;;;;;;;;;4928754;29;19950;-71
2022/07/21 06:37:34;;;;;;;;;;;;;;;;;;4925382;29;19974;-71
2022/07/21 06:40:03;;;;;;;;;;;;;;;;;;4924812;29;22865;-70
2022/07/21 06:42:30;;;;;;;;;;;;;;;;;;4924846;29;19941;-71
2022/07/21 06:44:57;;;;;;;;;;;;;;;;;;4928103;29;20023;-72
2022/07/21 06:47:24;;;;;;;;;;;;;;;;;;4928685;29;19935;-71
2022/07/21 06:49:52;;;;;;;;;;;;;;;;;;4929752;29;19931;-72
2022/07/21 06:52:19;;;;;;;;;;;;;;;;;;4928085;29;20021;-70
2022/07/21 06:54:47;;;;;;;;;;;;;;;;;;4928913;29;20465;-71
2022/07/21 06:57:14;;;;;;;;;;;;;;;;;;4929146;29;19935;-72
2022/07/21 06:59:41;;;;;;;;;;;;;;;;;;4926993;29;19931;-70
2022/07/21 07:02:08;;;;;;;;;;;;;;;;;;4925694;29;20036;-71
2022/07/21 07:04:39;;;;;;;;;;;;;;;;;;4925140;29;19934;-72
2022/07/21 07:07:06;;;;;;;;;;;;;;;;;;4927192;29;19997;-72
2022/07/21 07:09:33;;;;;;;;;;;;;;;;;;4930974;29;19933;-70
2022/07/21 07:12:03;;;;;;;;;;;;;;;;;;4924999;29;19931;-72
2022/07/21 07:14:51;;;;;;;;;;;;;;;;;;4930567;29;19930;-72
2022/07/21 07:17:18;;;;;;;;;;;;;;;;;;4923633;29;20029;-71
2022/07/21 07:19:46;;;;;;;;;;;;;;;;;;4921498;29;19930;-68
2022/07/21 07:22:13;;;;;;;;;;;;;;;;;;4917556;29;19937;-72
2022/07/21 07:24:40;;;;;;;;;;;;;;;;;;4922749;29;19930;-69
2022/07/21 07:27:08;;;;;;;;;;;;;;;;;;4924149;29;19966;-70
2022/07/21 07:29:35;;;;;;;;;;;;;;;;;;4923932;29;21748;-71
2022/07/21 07:32:02;;;;;;;;;;;;;;;;;;4928338;29;19931;-72
2022/07/21 07:34:30;;;;;;;;;;;;;;;;;;4927867;29;19962;-72
2022/07/21 07:36:57;;;;;;;;;;;;;;;;;;4927221;29;19926;-71
2022/07/21 07:39:24;;;;;;;;;;;;;;;;;;4925777;29;19934;-72
2022/07/21 07:41:52;;;;;;;;;;;;;;;;;;4925745;29;19931;-72
2022/07/21 07:44:19;;;;;;;;;;;;;;;;;;4928540;29;19931;-71
2022/07/21 07:46:46;;;;;;;;;;;;;;;;;;4927431;29;19931;-73
2022/07/21 07:49:14;;;;;;;;;;;;;;;;;;4924784;29;19939;-72
2022/07/21 07:51:45;;;;;;;;;;;;;;;;;;4926647;29;19973;-72
2022/07/21 07:54:12;;;;;;;;;;;;;;;;;;4927092;29;21084;-71
2022/07/21 07:56:39;;;;;;;;;;;;;;;;;;4910739;29;19950;-71
2022/07/21 07:59:07;;;;;;;;;;;;;;;;;;4927112;29;19935;-72
2022/07/21 08:01:34;;;;;;;;;;;;;;;;;;4911018;29;19927;-71
2022/07/21 08:04:01;;;;;;;;;;;;;;;;;;4924064;29;19938;-72
2022/07/21 08:06:29;;;;;;;;;;;;;;;;;;4924548;29;19927;-73
2022/07/21 08:08:56;;;;;;;;;;;;;;;;;;4929463;29;19962;-71
2022/07/21 08:11:24;;;;;;;;;;;;;;;;;;4929483;29;19941;-73
2022/07/21 08:13:52;;;;;;;;;;;;;;;;;;4911327;29;19974;-71
2022/07/21 08:16:20;;;;;;;;;;;;;;;;;;4924503;29;20029;-72
2022/07/21 08:18:47;;;;;;;;;;;;;;;;;;4905589;29;19931;-71
2022/07/21 08:21:16;;;;;;;;;;;;;;;;;;4904021;29;19931;-73
2022/07/21 08:23:43;;;;;;;;;;;;;;;;;;4928892;29;19931;-72
2022/07/21 08:26:10;;;;;;;;;;;;;;;;;;4920085;29;19941;-72
2022/07/21 08:28:38;;;;;;;;;;;;;;;;;;4928242;29;19927;-71
2022/07/21 08:31:05;;;;;;;;;;;;;;;;;;4923695;29;19943;-73
2022/07/21 08:33:32;;;;;;;;;;;;;;;;;;4927266;29;19939;-73
2022/07/21 08:35:59;;;;;;;;;;;;;;;;;;4918771;29;19927;-72
2022/07/21 08:38:27;;;;;;;;;;;;;;;;;;4926458;29;19931;-72
2022/07/21 08:40:54;;;;;;;;;;;;;;;;;;4925802;29;19931;-72
2022/07/21 08:43:21;;;;;;;;;;;;;;;;;;4925937;29;20026;-72
2022/07/21 08:45:49;;;;;;;;;;;;;;;;;;4927649;29;19941;-72
2022/07/21 08:48:19;;;;;;;;;;;;;;;;;;4928718;29;20311;-73
2022/07/21 08:50:46;;;;;;;;;;;;;;;;;;4925823;29;19958;-73
2022/07/21 08:53:13;;;;;;;;;;;;;;;;;;4924756;29;20017;-72
2022/07/21 08:55:40;;;;;;;;;;;;;;;;;;4929669;29;20037;-72
2022/07/21 08:58:08;;;;;;;;;;;;;;;;;;4911500;29;20007;-71
2022/07/21 09:00:35;;;;;;;;;;;;;;;;;;4928839;29;19962;-72
2022/07/21 09:03:03;;;;;;;;;;;;;;;;;;4926260;29;20013;-73
2022/07/21 09:05:30;;;;;;;;;;;;;;;;;;4941414;29;19943;-72
2022/07/21 09:08:00;;;;;;;;;;;;;;;;;;4932080;29;19937;-73
2022/07/21 09:10:27;;;;;;;;;;;;;;;;;;4931119;29;19927;-73
2022/07/21 09:12:54;;;;;;;;;;;;;;;;;;4928327;29;19982;-71
2022/07/21 09:15:22;;;;;;;;;;;;;;;;;;4929624;29;20437;-72
2022/07/21 09:17:49;;;;;;;;;;;;;;;;;;4958039;23;19926;-77
2022/07/21 09:20:37;;;;;;;;;;;;;;;;;;4948024;28;19926;-77
2022/07/21 09:23:04;;;;;;;;;;;;;;;;;;4944782;28;19930;-76
2022/07/21 09:25:33;;;;;;;;;;;;;;;;;;4943969;28;20024;-76
2022/07/21 09:28:00;;;;;;;;;;;;;;;;;;4968896;28;19938;-77
2022/07/21 09:30:27;;;;;;;;;;;;;;;;;;4955027;28;19933;-77
2022/07/21 09:32:56;;;;;;;;;;;;;;;;;;4950185;28;20029;-77
2022/07/21 09:35:24;;;;;;;;;;;;;;;;;;4960443;28;19962;-77
2022/07/21 09:37:51;;;;;;;;;;;;;;;;;;4941531;28;20053;-76
2022/07/21 09:40:19;;;;;;;;;;;;;;;;;;4952834;28;19941;-76
2022/07/21 09:42:46;;;;;;;;;;;;;;;;;;4966384;28;19972;-77
2022/07/21 09:45:14;;;;;;;;;;;;;;;;;;4960226;28;19934;-76
2022/07/21 09:47:41;;;;;;;;;;;;;;;;;;4959417;28;19935;-77
2022/07/21 09:50:12;;;;;;;;;;;;;;;;;;4970918;28;20339;-77
2022/07/21 09:52:50;;;;;;;;;;;;;;;;;;4957238;28;19934;-77
2022/07/21 09:55:18;;;;;;;;;;;;;;;;;;4966563;28;19930;-77
2022/07/21 09:57:45;;;;;;;;;;;;;;;;;;4938528;28;19949;-76
2022/07/21 10:00:12;;;;;;;;;;;;;;;;;;4968875;28;20019;-76
2022/07/21 10:02:45;;;;;;;;;;;;;;;;;;4969910;28;20161;-76
2022/07/21 10:05:12;;;;;;;;;;;;;;;;;;4977069;28;19941;-76
2022/07/21 10:07:39;;;;;;;;;;;;;;;;;;4970913;28;19933;-76
2022/07/21 10:10:07;;;;;;;;;;;;;;;;;;4962167;28;19930;-76
2022/07/21 10:12:36;;;;;;;;;;;;;;;;;;4940723;28;19934;-76
2022/07/21 10:15:04;;;;;;;;;;;;;;;;;;4980681;28;20026;-76
2022/07/21 10:17:31;;;;;;;;;;;;;;;;;;4950733;28;19976;-77
2022/07/21 10:19:58;;;;;;;;;;;;;;;;;;4972276;28;19926;-77
2022/07/21 10:22:25;;;;;;;;;;;;;;;;;;4952565;28;20325;-76
2022/07/21 10:24:53;;;;;;;;;;;;;;;;;;4980245;28;19934;-77
2022/07/21 10:27:21;;;;;;;;;;;;;;;;;;4979361;28;20314;-77
2022/07/21 10:30:01;;;;;;;;;;;;;;;;;;4967033;28;20013;-77
2022/07/21 10:32:29;;;;;;;;;;;;;;;;;;4976144;28;19965;-77
2022/07/21 10:34:56;;;;;;;;;;;;;;;;;;4956688;28;20321;-77
2022/07/21 10:37:23;;;;;;;;;;;;;;;;;;4954404;28;20152;-76
2022/07/21 10:39:51;;;;;;;;;;;;;;;;;;4969383;28;19931;-76
2022/07/21 10:42:20;;;;;;;;;;;;;;;;;;4928119;28;19938;-77
2022/07/21 10:44:48;;;;;;;;;;;;;;;;;;4939368;28;19937;-76
2022/07/21 10:47:16;;;;;;;;;;;;;;;;;;4943559;28;20448;-76
2022/07/21 10:49:43;;;;;;;;;;;;;;;;;;4981290;28;19934;-77
2022/07/21 10:52:10;;;;;;;;;;;;;;;;;;4974215;28;20017;-77
2022/07/21 10:54:38;;;;;;;;;;;;;;;;;;4961742;28;19930;-76
2022/07/21 10:57:05;;;;;;;;;;;;;;;;;;4988655;28;19934;-78
2022/07/21 10:59:33;;;;;;;;;;;;;;;;;;4962413;28;20381;-78
2022/07/21 11:02:00;;;;;;;;;;;;;;;;;;4956136;28;19968;-76
2022/07/21 11:04:27;;;;;;;;;;;;;;;;;;4969162;28;19930;-76
2022/07/21 11:06:55;;;;;;;;;;;;;;;;;;4969856;28;20694;-76
2022/07/21 11:09:22;;;;;;;;;;;;;;;;;;4967576;28;19930;-76
2022/07/21 11:11:49;;;;;;;;;;;;;;;;;;4976495;28;19953;-78
2022/07/21 11:14:23;;;;;;;;;;;;;;;;;;4965353;28;19962;-77
2022/07/21 11:16:54;;;;;;;;;;;;;;;;;;4969659;28;19926;-77
2022/07/21 11:19:21;;;;;;;;;;;;;;;;;;4965521;28;20486;-77
2022/07/21 11:21:49;;;;;;;;;;;;;;;;;;4973134;28;19934;-78
2022/07/21 11:24:16;;;;;;;;;;;;;;;;;;4963639;28;20381;-76
2022/07/21 11:26:43;;;;;;;;;;;;;;;;;;4966887;28;19941;-77
2022/07/21 11:29:11;;;;;;;;;;;;;;;;;;4958686;28;20406;-76
2022/07/21 11:31:38;;;;;;;;;;;;;;;;;;4969762;28;19934;-76
2022/07/21 11:34:05;;;;;;;;;;;;;;;;;;4936219;28;19938;-78
2022/07/21 11:36:32;;;;;;;;;;;;;;;;;;4977259;28;19931;-77
2022/07/21 11:39:00;;;;;;;;;;;;;;;;;;4986468;28;20668;-77
2022/07/21 11:41:29;;;;;;;;;;;;;;;;;;4970707;28;21534;-78
2022/07/21 11:43:56;;;;;;;;;;;;;;;;;;4975581;28;19991;-78
2022/07/21 11:46:25;;;;;;;;;;;;;;;;;;4967310;28;19933;-77
2022/07/21 11:48:52;;;;;;;;;;;;;;;;;;4958542;28;20016;-77
2022/07/21 11:51:20;;;;;;;;;;;;;;;;;;4970479;28;19926;-79
2022/07/21 11:53:47;;;;;;;;;;;;;;;;;;4956912;28;19930;-78
2022/07/21 11:56:14;;;;;;;;;;;;;;;;;;4967895;28;19965;-77
2022/07/21 11:58:41;;;;;;;;;;;;;;;;;;4966082;28;19965;-77
2022/07/21 12:01:11;;;;;;;;;;;;;;;;;;4950880;28;19954;-76
2022/07/21 12:03:39;;;;;;;;;;;;;;;;;;4969570;28;20000;-78
2022/07/21 12:06:06;;;;;;;;;;;;;;;;;;4965494;28;19930;-77
2022/07/21 12:08:33;;;;;;;;;;;;;;;;;;4975862;28;20006;-77
2022/07/21 12:11:01;;;;;;;;;;;;;;;;;;4972329;28;19926;-78
2022/07/21 12:13:28;;;;;;;;;;;;;;;;;;4976859;28;19930;-78
2022/07/21 12:15:55;;;;;;;;;;;;;;;;;;4937782;29;19969;-78
2022/07/21 12:18:25;;;;;;;;;;;;;;;;;;4974893;28;19961;-77
2022/07/21 12:20:53;;;;;;;;;;;;;;;;;;4979912;28;19933;-78
2022/07/21 12:23:20;;;;;;;;;;;;;;;;;;4990213;28;19937;-78
2022/07/21 12:25:47;;;;;;;;;;;;;;;;;;4990049;28;19971;-77
2022/07/21 12:28:20;;;;;;;;;;;;;;;;;;4982302;28;19925;-78
2022/07/21 12:30:47;;;;;;;;;;;;;;;;;;4983781;28;19927;-78
2022/07/21 12:33:16;;;;;;;;;;;;;;;;;;4967816;28;19930;-77
2022/07/21 12:35:43;;;;;;;;;;;;;;;;;;4945484;28;19930;-77
2022/07/21 12:38:11;;;;;;;;;;;;;;;;;;4964035;28;20186;-77
2022/07/21 12:40:38;;;;;;;;;;;;;;;;;;4970790;28;19930;-76
2022/07/21 12:43:12;;;;;;;;;;;;;;;;;;4974645;28;20114;-76
2022/07/21 12:45:39;;;;;;;;;;;;;;;;;;4950971;28;20001;-76
2022/07/21 12:48:07;;;;;;;;;;;;;;;;;;4958470;28;19937;-76
2022/07/21 12:50:35;;;;;;;;;;;;;;;;;;4975022;28;20447;-76
2022/07/21 12:53:02;;;;;;;;;;;;;;;;;;4967239;28;19930;-77
2022/07/21 12:55:30;;;;;;;;;;;;;;;;;;4949585;28;19926;-77
2022/07/21 12:57:57;;;;;;;;;;;;;;;;;;4956632;28;19966;-76
2022/07/21 13:00:28;;;;;;;;;;;;;;;;;;4968028;28;19938;-78
2022/07/21 13:02:55;;;;;;;;;;;;;;;;;;4972902;28;20017;-78
2022/07/21 13:05:23;;;;;;;;;;;;;;;;;;4967763;28;19953;-77
2022/07/21 13:07:50;;;;;;;;;;;;;;;;;;4971914;28;19930;-79
2022/07/21 13:10:17;;;;;;;;;;;;;;;;;;4973901;28;20224;-78
2022/07/21 13:12:45;;;;;;;;;;;;;;;;;;4972709;28;19937;-77
2022/07/21 13:15:12;;;;;;;;;;;;;;;;;;4970229;28;19933;-76
2022/07/21 13:17:39;;;;;;;;;;;;;;;;;;4967316;28;19930;-77
2022/07/21 13:20:07;;;;;;;;;;;;;;;;;;4966909;28;19930;-76
2022/07/21 13:22:34;;;;;;;;;;;;;;;;;;4961578;28;19930;-77
2022/07/21 13:25:01;;;;;;;;;;;;;;;;;;4953277;28;19953;-77
2022/07/21 13:27:29;;;;;;;;;;;;;;;;;;4971836;28;19956;-78
2022/07/21 13:29:56;;;;;;;;;;;;;;;;;;4974364;28;19961;-76
2022/07/21 13:32:23;;;;;;;;;;;;;;;;;;4958888;28;20338;-77
2022/07/21 13:34:51;;;;;;;;;;;;;;;;;;4970862;28;19978;-77
2022/07/21 13:37:38;;;;;;;;;;;;;;;;;;4967345;28;20418;-76
2022/07/21 13:40:05;;;;;;;;;;;;;;;;;;4976913;28;19965;-78
2022/07/21 13:42:53;;;;;;;;;;;;;;;;;;4974134;28;20001;-79
2022/07/21 13:45:53;;;;;;;;;;;;;;;;;;4980611;28;19934;-83
2022/07/21 13:51:56;;;;;;;;;;;;;;;;;;4977675;28;20289;-77
2022/07/21 13:54:24;;;;;;;;;;;;;;;;;;4974558;28;20017;-78
2022/07/21 13:56:57;;;;;;;;;;;;;;;;;;4977189;28;20036;-76
2022/07/21 13:59:24;;;;;;;;;;;;;;;;;;4996255;28;19972;-76
2022/07/21 14:01:51;;;;;;;;;;;;;;;;;;4976806;28;19930;-79
2022/07/21 14:04:19;;;;;;;;;;;;;;;;;;4943733;29;19927;-77
2022/07/21 14:06:48;;;;;;;;;;;;;;;;;;4944178;29;19942;-76
2022/07/21 14:09:15;;;;;;;;;;;;;;;;;;4959165;29;19931;-76
2022/07/21 14:11:43;;;;;;;;;;;;;;;;;;4957209;28;19937;-77
2022/07/21 14:14:15;;;;;;;;;;;;;;;;;;4979877;28;19930;-77
2022/07/21 14:16:53;;;;;;;;;;;;;;;;;;4983939;28;20295;-77
2022/07/21 14:19:23;;;;;;;;;;;;;;;;;;4961612;28;19941;-78
2022/07/21 14:21:51;;;;;;;;;;;;;;;;;;4948825;28;19938;-77
2022/07/21 14:27:05;;;;;;;;;;;;;;;;;;4955425;28;19930;-78
2022/07/21 14:29:37;;;;;;;;;;;;;;;;;;4967112;28;19926;-77
2022/07/21 14:32:04;;;;;;;;;;;;;;;;;;4964456;28;19937;-76
2022/07/21 14:34:32;;;;;;;;;;;;;;;;;;4968064;28;19954;-77
2022/07/21 14:36:59;;;;;;;;;;;;;;;;;;4970162;28;19944;-77
2022/07/21 14:39:30;;;;;;;;;;;;;;;;;;4955459;28;20294;-78
2022/07/21 14:41:58;;;;;;;;;;;;;;;;;;4970195;28;19981;-76
2022/07/21 14:44:25;;;;;;;;;;;;;;;;;;4954095;28;20298;-78
2022/07/21 14:46:52;;;;;;;;;;;;;;;;;;4956197;28;19954;-77
2022/07/21 14:49:27;;;;;;;;;;;;;;;;;;4971055;28;19973;-80
2022/07/21 14:52:11;;;;;;;;;;;;;;;;;;4936467;28;19994;-77
2022/07/21 14:54:39;;;;;;;;;;;;;;;;;;4956074;28;19977;-77
2022/07/21 14:57:06;;;;;;;;;;;;;;;;;;4968611;28;19934;-76
2022/07/21 14:59:36;;;;;;;;;;;;;;;;;;4963170;28;19933;-77
2022/07/21 15:02:03;;;;;;;;;;;;;;;;;;4962420;28;19932;-77
2022/07/21 15:04:37;;;;;;;;;;;;;;;;;;4951456;28;19934;-77
2022/07/21 15:07:04;;;;;;;;;;;;;;;;;;4954365;28;20049;-76
2022/07/21 15:09:31;;;;;;;;;;;;;;;;;;4948233;28;19926;-77
2022/07/21 15:11:59;;;;;;;;;;;;;;;;;;4967929;28;19930;-77
2022/07/21 15:14:26;;;;;;;;;;;;;;;;;;4965655;28;20417;-77
2022/07/21 15:16:53;;;;;;;;;;;;;;;;;;4963048;28;19964;-78
2022/07/21 15:19:20;;;;;;;;;;;;;;;;;;4961356;23;20017;-75
2022/07/21 15:21:48;;;;;;;;;;;;;;;;;;4963494;28;20502;-75
2022/07/21 15:24:15;;;;;;;;;;;;;;;;;;4967504;28;19930;-75
2022/07/21 15:26:42;;;;;;;;;;;;;;;;;;4967164;28;19926;-75
2022/07/21 15:29:09;;;;;;;;;;;;;;;;;;4967928;28;20025;-75
2022/07/21 15:31:37;;;;;;;;;;;;;;;;;;4967877;28;19930;-75
2022/07/21 15:34:04;;;;;;;;;;;;;;;;;;4967461;28;19933;-75
2022/07/21 15:36:32;;;;;;;;;;;;;;;;;;4947133;28;19978;-78
2022/07/21 15:38:59;;;;;;;;;;;;;;;;;;4930990;28;19934;-74
2022/07/21 15:41:27;;;;;;;;;;;;;;;;;;4941671;28;19968;-76
2022/07/21 15:44:14;;;;;;;;;;;;;;;;;;4932241;28;19953;-76
2022/07/21 15:46:42;;;;;;;;;;;;;;;;;;4936439;28;19930;-76
2022/07/21 15:49:10;;;;;;;;;;;;;;;;;;4938737;28;19934;-77
2022/07/21 15:51:37;;;;;;;;;;;;;;;;;;4932843;28;20044;-77
2022/07/21 15:54:04;;;;;;;;;;;;;;;;;;4933354;28;20005;-77
2022/07/21 15:56:31;;;;;;;;;;;;;;;;;;4933286;28;19961;-76
2022/07/21 16:01:45;;;;;;;;;;;;;;;;;;4933335;28;19934;-76
2022/07/21 16:04:12;;;;;;;;;;;;;;;;;;4936943;28;19931;-78
2022/07/21 16:06:40;;;;;;;;;;;;;;;;;;4933851;28;20406;-75
2022/07/21 16:09:07;;;;;;;;;;;;;;;;;;4935098;28;20422;-77
2022/07/21 16:11:34;;;;;;;;;;;;;;;;;;4934266;28;19930;-77
2022/07/21 16:14:02;;;;;;;;;;;;;;;;;;4930248;28;20045;-76
2022/07/21 16:16:33;;;;;;;;;;;;;;;;;;4930234;28;19941;-76
2022/07/21 16:19:01;;;;;;;;;;;;;;;;;;4943696;28;20026;-78
2022/07/21 16:21:28;;;;;;;;;;;;;;;;;;4942227;28;20033;-77
2022/07/21 16:23:55;;;;;;;;;;;;;;;;;;4927101;28;20619;-78
2022/07/21 16:26:25;;;;;;;;;;;;;;;;;;4923267;28;19934;-77
2022/07/21 16:28:52;;;;;;;;;;;;;;;;;;4935072;28;19935;-78
2022/07/21 16:31:21;;;;;;;;;;;;;;;;;;4926178;28;20363;-76
2022/07/21 16:33:52;;;;;;;;;;;;;;;;;;4925253;28;19935;-74
2022/07/21 16:36:20;;;;;;;;;;;;;;;;;;4935930;28;19957;-76
2022/07/21 16:38:47;;;;;;;;;;;;;;;;;;4933323;28;20406;-75
2022/07/21 16:41:15;;;;;;;;;;;;;;;;;;4920303;28;19959;-77
2022/07/21 16:43:42;;;;;;;;;;;;;;;;;;4931936;28;20576;-75
2022/07/21 16:46:10;;;;;;;;;;;;;;;;;;4936001;28;19941;-77
2022/07/21 16:48:40;;;;;;;;;;;;;;;;;;4929242;28;19935;-77
2022/07/21 16:51:09;;;;;;;;;;;;;;;;;;4924777;28;20037;-77
2022/07/21 16:53:37;;;;;;;;;;;;;;;;;;4948942;28;20358;-75
2022/07/21 16:56:04;;;;;;;;;;;;;;;;;;4949204;28;20041;-77
2022/07/21 16:58:31;;;;;;;;;;;;;;;;;;4928765;28;20021;-78
2022/07/21 17:00:59;;;;;;;;;;;;;;;;;;4933353;28;19949;-77
2022/07/21 17:03:26;;;;;;;;;;;;;;;;;;4930246;28;20483;-75